Time;durP1;ratioP1;P1;durP2;ratioP2;P2;SDS_P1;SDS_P2;PMS_P1;PMS_P2;Temp;Humidity;BMP_temperature;BMP_pressure;BME280_temperature;BME280_humidity;BME280_pressure;Samples;Min_cycle;Max_cycle;Signal;HPM_P1;HPM_P2
2022/10/22 00:01:14;;;;;;;40.10;20.80;;;14.60;99.90;;;;;;5030894;28;20187;-46
2022/10/22 00:03:39;;;;;;;33.97;20.40;;;14.60;99.90;;;;;;5030618;28;20187;-46
2022/10/22 00:06:05;;;;;;;32.00;20.07;;;14.60;99.90;;;;;;5030809;28;20173;-46
2022/10/22 00:08:31;;;;;;;34.57;21.77;;;14.60;99.90;;;;;;5030405;28;20218;-46
2022/10/22 00:10:56;;;;;;;37.47;21.57;;;14.70;99.90;;;;;;5030729;28;20199;-46
2022/10/22 00:13:22;;;;;;;37.70;21.13;;;14.60;99.90;;;;;;5029917;28;20214;-46
2022/10/22 00:15:48;;;;;;;34.87;19.80;;;14.70;99.90;;;;;;5029943;28;20222;-46
2022/10/22 00:18:14;;;;;;;39.10;22.07;;;14.70;99.90;;;;;;5027282;28;20191;-46
2022/10/22 00:20:39;;;;;;;39.40;21.67;;;14.70;99.90;;;;;;5030801;28;20683;-46
2022/10/22 00:23:05;;;;;;;40.20;20.77;;;14.70;99.90;;;;;;5030494;28;20187;-46
2022/10/22 00:25:34;;;;;;;37.30;21.77;;;14.70;99.90;;;;;;5034017;28;20167;-46
2022/10/22 00:28:00;;;;;;;38.60;21.10;;;14.70;99.90;;;;;;5034107;28;20759;-46
2022/10/22 00:30:25;;;;;;;41.60;22.37;;;14.70;99.90;;;;;;5034414;28;20414;-46
2022/10/22 00:32:51;;;;;;;37.43;22.63;;;14.80;99.90;;;;;;5034380;28;20182;-46
2022/10/22 00:35:16;;;;;;;40.23;22.13;;;14.80;99.90;;;;;;5034287;28;20186;-46
2022/10/22 00:37:42;;;;;;;36.53;20.60;;;14.80;99.90;;;;;;5034247;28;20242;-47
2022/10/22 00:40:08;;;;;;;34.57;22.00;;;14.80;99.90;;;;;;5034208;28;20187;-46
2022/10/22 00:42:34;;;;;;;33.57;19.57;;;14.80;99.90;;;;;;5033921;28;20194;-46
2022/10/22 00:45:16;;;;;;;33.33;20.90;;;14.80;97.70;;;;;;5033891;28;20489;-46
2022/10/22 00:47:51;;;;;;;39.60;20.47;;;14.80;95.00;;;;;;5033072;28;20183;-46
2022/10/22 00:50:27;;;;;;;34.07;21.57;;;14.70;93.40;;;;;;5029380;28;20449;-46
2022/10/22 00:52:54;;;;;;;38.50;21.83;;;14.70;94.40;;;;;;5018165;28;20418;-46
2022/10/22 00:55:20;;;;;;;38.30;22.77;;;14.80;95.00;;;;;;5035531;28;20410;-46
2022/10/22 00:57:47;;;;;;;37.10;21.60;;;14.70;94.30;;;;;;5035524;28;20479;-46
2022/10/22 01:00:13;;;;;;;35.77;21.73;;;14.80;94.00;;;;;;5035054;28;20866;-46
2022/10/22 01:02:39;;;;;;;37.80;20.40;;;14.70;93.80;;;;;;5035085;28;20441;-46
2022/10/22 01:05:05;;;;;;;45.50;22.33;;;14.70;94.50;;;;;;5035207;28;20587;-46
2022/10/22 01:07:32;;;;;;;35.40;20.77;;;14.70;95.50;;;;;;5035068;28;20590;-48
2022/10/22 01:10:11;;;;;;;35.53;21.60;;;14.70;95.50;;;;;;5035099;28;20449;-47
2022/10/22 01:12:53;;;;;;;40.73;22.30;;;14.70;95.80;;;;;;5035036;28;20961;-45
2022/10/22 01:15:58;;;;;;;33.80;19.63;;;14.70;96.40;;;;;;5034986;28;20872;-45
2022/10/22 01:18:42;;;;;;;40.97;21.20;;;14.70;98.30;;;;;;5035064;28;20449;-48
2022/10/22 01:21:18;;;;;;;42.57;21.57;;;14.70;99.90;;;;;;5034663;28;20492;-45
2022/10/22 01:24:10;;;;;;;35.50;20.57;;;14.70;97.30;;;;;;5034704;28;20473;-45
2022/10/22 01:26:36;;;;;;;36.33;21.33;;;14.70;95.70;;;;;;5034993;28;20429;-46
2022/10/22 01:29:16;;;;;;;38.27;21.70;;;14.70;94.00;;;;;;5034182;28;20433;-46
2022/10/22 01:32:07;;;;;;;45.13;20.90;;;14.70;92.60;;;;;;5034556;28;20194;-46
2022/10/22 01:34:35;;;;;;;42.57;21.50;;;14.70;91.80;;;;;;5034674;28;20841;-46
2022/10/22 01:37:02;;;;;;;42.70;21.17;;;14.60;90.40;;;;;;5033625;28;20468;-46
2022/10/22 01:39:29;;;;;;;31.90;19.23;;;14.60;90.30;;;;;;5034704;28;20430;-46
2022/10/22 01:41:57;;;;;;;38.23;21.60;;;14.50;88.30;;;;;;5066615;28;20892;-46
2022/10/22 01:44:27;;;;;;;34.70;20.93;;;14.50;89.00;;;;;;5037682;28;20493;-46
2022/10/22 01:47:14;;;;;;;37.53;21.93;;;14.50;86.30;;;;;;5034158;28;20411;-47
2022/10/22 01:49:54;;;;;;;35.03;20.40;;;14.50;86.40;;;;;;5026860;28;20503;-47
2022/10/22 01:52:22;;;;;;;39.73;21.63;;;14.50;84.30;;;;;;5032529;28;20456;-46
2022/10/22 01:55:10;;;;;;;35.83;21.73;;;14.40;77.60;;;;;;5032686;28;20476;-46
2022/10/22 01:57:48;;;;;;;38.30;21.90;;;14.40;76.40;;;;;;5032561;28;20900;-46
2022/10/22 02:00:17;;;;;;;40.50;22.17;;;14.40;81.40;;;;;;5032557;28;20511;-46
2022/10/22 02:02:59;;;;;;;36.57;20.70;;;14.40;83.70;;;;;;5032668;28;20496;-47
2022/10/22 02:05:33;;;;;;;40.13;21.10;;;14.30;80.10;;;;;;5028634;28;20484;-47
2022/10/22 02:08:07;;;;;;;36.47;20.10;;;14.20;81.70;;;;;;5032591;28;20393;-46
2022/10/22 02:10:36;;;;;;;38.17;22.20;;;14.20;83.10;;;;;;5032594;28;20728;-47
2022/10/22 02:13:03;;;;;;;37.10;22.20;;;14.20;85.30;;;;;;5022805;28;20438;-47
2022/10/22 02:15:32;;;;;;;36.93;19.73;;;14.10;83.50;;;;;;5024007;28;20800;-47
2022/10/22 02:17:59;;;;;;;31.20;19.70;;;14.10;82.70;;;;;;5032322;28;20413;-47
2022/10/22 02:20:28;;;;;;;39.53;23.13;;;14.00;83.40;;;;;;5032071;28;20418;-48
2022/10/22 02:22:55;;;;;;;37.37;21.00;;;13.90;83.40;;;;;;5031963;28;20436;-47
2022/10/22 02:25:22;;;;;;;39.27;21.10;;;13.90;86.20;;;;;;5032591;28;20802;-62
2022/10/22 02:27:57;;;;;;;39.93;19.87;;;13.90;90.10;;;;;;5033763;28;20425;-63
2022/10/22 02:30:22;;;;;;;32.60;18.63;;;13.80;90.50;;;;;;5034019;28;20401;-62
2022/10/22 02:33:10;;;;;;;34.07;20.03;;;13.70;91.10;;;;;;5032399;28;20429;-64
2022/10/22 02:35:38;;;;;;;35.17;19.90;;;13.70;92.20;;;;;;5034559;28;20262;-64
2022/10/22 02:38:04;;;;;;;34.67;20.57;;;13.70;94.60;;;;;;5033145;28;20425;-64
2022/10/22 02:40:30;;;;;;;38.00;22.23;;;13.60;96.30;;;;;;5032882;28;21093;-63
2022/10/22 02:42:56;;;;;;;35.30;19.90;;;13.50;97.70;;;;;;5032484;28;20434;-64
2022/10/22 02:45:22;;;;;;;39.50;21.80;;;13.60;98.70;;;;;;5031620;28;20547;-62
2022/10/22 02:47:48;;;;;;;38.73;20.03;;;13.50;99.90;;;;;;5031680;28;20182;-63
2022/10/22 02:50:14;;;;;;;38.77;20.87;;;13.50;99.90;;;;;;5027634;28;20814;-62
2022/10/22 02:52:39;;;;;;;35.10;19.17;;;13.50;99.90;;;;;;5031407;28;20221;-61
2022/10/22 02:55:06;;;;;;;39.53;20.40;;;13.40;99.90;;;;;;5031579;28;20221;-63
2022/10/22 02:57:32;;;;;;;33.73;19.60;;;13.30;99.90;;;;;;5030969;28;20194;-62
2022/10/22 02:59:58;;;;;;;39.73;22.77;;;13.30;99.90;;;;;;5031494;28;20418;-63
2022/10/22 03:02:23;;;;;;;36.27;20.57;;;13.30;99.90;;;;;;5031460;28;20401;-61
2022/10/22 03:04:49;;;;;;;39.00;21.17;;;13.30;99.90;;;;;;5031520;28;20258;-63
2022/10/22 03:07:15;;;;;;;43.77;21.93;;;13.30;99.90;;;;;;5031494;28;20191;-62
2022/10/22 03:09:41;;;;;;;31.87;20.47;;;13.20;99.90;;;;;;5031469;28;20501;-61
2022/10/22 03:12:07;;;;;;;38.00;20.30;;;13.20;99.90;;;;;;5030188;28;20475;-62
2022/10/22 03:14:33;;;;;;;39.83;21.90;;;13.20;99.90;;;;;;5031410;28;20526;-63
2022/10/22 03:16:59;;;;;;;57.50;20.13;;;13.10;99.90;;;;;;5031111;28;20798;-61
2022/10/22 03:19:24;;;;;;;40.60;21.97;;;13.10;99.90;;;;;;5031171;28;20421;-60
2022/10/22 03:21:55;;;;;;;43.90;22.13;;;13.10;99.90;;;;;;5031610;28;20262;-60
2022/10/22 03:24:26;;;;;;;51.57;22.50;;;13.10;99.90;;;;;;5030419;28;20250;-60
2022/10/22 03:26:51;;;;;;;39.27;21.37;;;13.10;99.90;;;;;;5030804;28;20472;-61
2022/10/22 03:29:20;;;;;;;38.20;21.30;;;13.10;99.90;;;;;;5031484;28;20434;-61
2022/10/22 03:31:45;;;;;;;51.43;24.40;;;13.10;99.90;;;;;;5031282;28;20171;-59
2022/10/22 03:34:12;;;;;;;42.83;21.47;;;13.10;99.90;;;;;;5032247;28;20456;-61
2022/10/22 03:36:38;;;;;;;45.27;23.60;;;13.20;99.90;;;;;;5030941;28;20194;-58
2022/10/22 03:39:05;;;;;;;48.80;24.73;;;13.20;99.90;;;;;;5031080;28;20468;-59
2022/10/22 03:41:31;;;;;;;54.33;23.90;;;13.20;99.90;;;;;;5031990;28;20783;-58
2022/10/22 03:43:56;;;;;;;40.70;22.23;;;13.20;99.90;;;;;;5031761;28;20563;-59
2022/10/22 03:46:22;;;;;;;49.73;25.33;;;13.20;99.90;;;;;;5030351;28;20410;-59
2022/10/22 03:48:48;;;;;;;39.40;20.30;;;13.20;99.90;;;;;;5030263;28;20583;-60
2022/10/22 03:51:13;;;;;;;54.57;24.70;;;13.20;99.90;;;;;;5029670;28;20229;-59
2022/10/22 03:53:39;;;;;;;54.87;24.33;;;13.10;99.90;;;;;;5031019;28;20186;-58
2022/10/22 03:56:09;;;;;;;38.50;21.97;;;13.10;99.90;;;;;;5029663;28;20954;-48
2022/10/22 03:58:36;;;;;;;54.80;24.93;;;13.20;99.90;;;;;;5026806;28;20191;-48
2022/10/22 04:01:09;;;;;;;48.13;24.43;;;13.20;99.90;;;;;;5034644;28;20417;-49
2022/10/22 04:03:36;;;;;;;50.13;25.00;;;13.20;99.90;;;;;;5034824;28;20880;-48
2022/10/22 04:06:10;;;;;;;56.63;25.80;;;13.20;99.90;;;;;;5034438;28;20441;-49
2022/10/22 04:08:37;;;;;;;48.47;25.77;;;13.20;99.90;;;;;;5034102;28;20896;-48
2022/10/22 04:11:02;;;;;;;53.13;26.70;;;13.30;99.90;;;;;;5033334;28;20449;-49
2022/10/22 04:13:28;;;;;;;54.87;26.63;;;13.30;99.90;;;;;;5034843;28;20826;-48
2022/10/22 04:15:53;;;;;;;53.60;24.53;;;13.30;99.90;;;;;;5034109;28;20187;-49
2022/10/22 04:18:21;;;;;;;59.87;27.00;;;13.30;99.90;;;;;;5034728;28;20244;-49
2022/10/22 04:20:47;;;;;;;48.03;23.90;;;13.30;99.90;;;;;;5034614;28;20631;-48
2022/10/22 04:23:13;;;;;;;51.03;24.97;;;13.20;99.90;;;;;;5034146;28;20445;-47
2022/10/22 04:25:39;;;;;;;54.83;26.10;;;13.20;99.90;;;;;;5034309;28;20183;-48
2022/10/22 04:28:08;;;;;;;50.07;24.37;;;13.20;99.90;;;;;;5034634;28;20413;-49
2022/10/22 04:30:35;;;;;;;47.30;23.23;;;13.20;99.90;;;;;;5033763;28;20273;-48
2022/10/22 04:33:01;;;;;;;59.70;27.40;;;13.20;99.90;;;;;;5033929;28;20422;-48
2022/10/22 04:35:27;;;;;;;56.03;26.60;;;13.30;99.90;;;;;;5034110;28;20453;-49
2022/10/22 04:37:54;;;;;;;61.80;27.43;;;13.30;99.90;;;;;;5034308;28;20464;-49
2022/10/22 04:40:19;;;;;;;79.43;29.37;;;13.30;99.90;;;;;;5034213;28;20199;-49
2022/10/22 04:42:45;;;;;;;67.53;29.10;;;13.30;99.90;;;;;;5033980;28;20484;-49
2022/10/22 04:45:11;;;;;;;73.57;30.73;;;13.30;99.90;;;;;;5033320;28;20243;-49
2022/10/22 04:47:36;;;;;;;74.63;32.40;;;13.30;99.90;;;;;;5034205;28;20209;-49
2022/10/22 04:50:02;;;;;;;74.27;29.57;;;13.30;99.90;;;;;;5034034;28;20614;-48
2022/10/22 04:52:29;;;;;;;69.00;30.37;;;13.40;99.90;;;;;;5034087;28;20577;-49
2022/10/22 04:54:55;;;;;;;64.03;29.77;;;13.40;99.90;;;;;;5033791;28;20430;-49
2022/10/22 04:57:20;;;;;;;71.77;30.43;;;13.40;99.90;;;;;;5033943;28;20421;-48
2022/10/22 04:59:46;;;;;;;68.63;29.03;;;13.40;99.90;;;;;;5033712;28;20183;-48
2022/10/22 05:02:12;;;;;;;74.10;30.60;;;13.40;99.90;;;;;;5030287;28;20650;-48
2022/10/22 05:04:37;;;;;;;76.63;29.47;;;13.40;99.90;;;;;;5013880;28;20211;-49
2022/10/22 05:07:03;;;;;;;80.47;31.77;;;13.40;99.90;;;;;;5033061;28;20290;-49
2022/10/22 05:09:28;;;;;;;82.47;31.20;;;13.40;99.90;;;;;;5033343;28;20189;-49
2022/10/22 05:11:54;;;;;;;78.37;32.20;;;13.40;99.90;;;;;;5033498;28;20231;-49
2022/10/22 05:14:23;;;;;;;71.60;29.60;;;13.40;99.90;;;;;;5033601;28;20674;-49
2022/10/22 05:16:49;;;;;;;69.57;29.60;;;13.40;99.90;;;;;;5033096;28;20191;-49
2022/10/22 05:19:28;;;;;;;69.90;32.07;;;13.40;99.90;;;;;;5033536;28;20463;-48
2022/10/22 05:21:56;;;;;;;64.03;28.37;;;13.30;99.90;;;;;;5032745;28;20476;-48
2022/10/22 05:24:22;;;;;;;63.60;29.10;;;13.30;99.90;;;;;;5032786;28;20519;-48
2022/10/22 05:26:49;;;;;;;58.23;28.80;;;13.20;99.90;;;;;;5032667;28;20453;-48
2022/10/22 05:29:15;;;;;;;73.00;29.43;;;13.20;99.90;;;;;;5033371;28;20985;-48
2022/10/22 05:31:41;;;;;;;65.93;28.83;;;13.20;99.90;;;;;;5032549;28;20465;-48
2022/10/22 05:34:06;;;;;;;62.27;27.70;;;13.10;99.90;;;;;;5032856;28;20199;-49
2022/10/22 05:36:32;;;;;;;62.57;28.87;;;13.10;99.90;;;;;;5033067;28;20349;-48
2022/10/22 05:38:58;;;;;;;53.80;29.07;;;13.10;99.90;;;;;;5032788;28;20257;-47
2022/10/22 05:41:25;;;;;;;59.20;29.30;;;13.20;99.90;;;;;;5032076;28;20194;-49
2022/10/22 05:43:54;;;;;;;68.07;29.20;;;13.20;99.90;;;;;;5034426;28;20246;-48
2022/10/22 05:46:21;;;;;;;64.10;29.33;;;13.20;99.90;;;;;;5028895;28;20441;-48
2022/10/22 05:48:55;;;;;;;56.00;26.30;;;13.20;99.90;;;;;;5033218;28;20413;-48
2022/10/22 05:51:21;;;;;;;53.63;27.80;;;13.20;99.90;;;;;;5032617;28;20521;-48
2022/10/22 05:53:52;;;;;;;67.53;30.27;;;13.20;99.90;;;;;;5032962;28;20499;-48
2022/10/22 05:56:18;;;;;;;58.93;28.23;;;13.10;99.90;;;;;;5031702;28;20844;-47
2022/10/22 05:58:44;;;;;;;54.57;29.30;;;13.10;99.90;;;;;;5032187;28;20445;-47
2022/10/22 06:01:18;;;;;;;57.20;28.30;;;13.10;99.90;;;;;;5032331;28;20240;-48
2022/10/22 06:03:45;;;;;;;58.57;28.47;;;13.10;99.90;;;;;;5032281;28;20560;-47
2022/10/22 06:06:24;;;;;;;55.07;27.40;;;13.10;99.90;;;;;;5032684;28;20884;-47
2022/10/22 06:08:52;;;;;;;54.90;27.70;;;13.10;99.90;;;;;;5031776;28;20523;-47
2022/10/22 06:11:21;;;;;;;55.03;28.00;;;13.00;99.90;;;;;;5031449;28;20560;-48
2022/10/22 06:13:47;;;;;;;57.80;27.60;;;13.00;99.90;;;;;;5032560;28;20410;-48
2022/10/22 06:16:13;;;;;;;50.20;26.30;;;12.90;99.90;;;;;;5032069;28;20430;-48
2022/10/22 06:18:39;;;;;;;51.03;24.93;;;12.90;99.90;;;;;;5031981;28;20465;-48
2022/10/22 06:21:14;;;;;;;48.33;25.30;;;12.90;99.90;;;;;;5031988;28;20501;-48
2022/10/22 06:23:41;;;;;;;50.30;26.23;;;12.80;99.90;;;;;;5031602;28;20457;-48
2022/10/22 06:26:08;;;;;;;59.30;27.20;;;12.70;99.90;;;;;;5031568;28;20445;-49
2022/10/22 06:28:34;;;;;;;55.57;27.80;;;12.80;99.90;;;;;;5031490;28;20445;-56
2022/10/22 06:31:01;;;;;;;48.50;25.67;;;12.70;99.90;;;;;;5031847;28;20528;-57
2022/10/22 06:33:28;;;;;;;59.43;28.70;;;12.70;99.90;;;;;;5032106;28;20421;-57
2022/10/22 06:35:54;;;;;;;52.80;27.60;;;12.80;99.90;;;;;;5031814;28;20433;-57
2022/10/22 06:38:20;;;;;;;51.03;26.90;;;12.80;99.90;;;;;;5034521;28;20437;-57
2022/10/22 06:40:45;;;;;;;57.00;29.60;;;12.80;99.90;;;;;;5032818;28;20519;-57
2022/10/22 06:43:12;;;;;;;63.47;27.80;;;12.80;99.90;;;;;;5031534;28;20454;-57
2022/10/22 06:45:38;;;;;;;61.83;29.90;;;12.80;99.90;;;;;;5028127;28;20811;-57
2022/10/22 06:48:04;;;;;;;55.73;26.10;;;12.80;99.90;;;;;;5027378;28;20449;-57
2022/10/22 06:50:30;;;;;;;53.27;27.60;;;12.80;99.90;;;;;;5031192;28;20186;-58
2022/10/22 06:52:57;;;;;;;54.07;27.90;;;12.80;99.90;;;;;;5031496;28;20552;-58
2022/10/22 06:55:23;;;;;;;54.37;27.53;;;12.80;99.90;;;;;;5029165;28;20186;-58
2022/10/22 06:57:48;;;;;;;54.77;26.10;;;12.90;99.90;;;;;;5032633;28;20521;-58
2022/10/22 07:00:14;;;;;;;52.37;27.07;;;12.90;99.90;;;;;;5032743;28;20195;-59
2022/10/22 07:02:40;;;;;;;40.27;22.50;;;12.90;99.90;;;;;;5030310;28;20191;-58
2022/10/22 07:05:06;;;;;;;54.87;25.63;;;12.90;99.90;;;;;;5028558;28;20218;-58
2022/10/22 07:07:31;;;;;;;51.10;27.90;;;12.90;99.90;;;;;;5031287;28;20607;-49
2022/10/22 07:09:57;;;;;;;48.97;25.40;;;12.90;99.90;;;;;;5031688;28;20413;-49
2022/10/22 07:12:23;;;;;;;51.80;25.37;;;12.90;99.90;;;;;;5029478;28;20198;-49
2022/10/22 07:14:48;;;;;;;50.50;26.97;;;13.00;99.90;;;;;;5035031;28;20215;-49
2022/10/22 07:17:14;;;;;;;46.57;23.50;;;13.00;99.90;;;;;;5031321;28;20190;-50
2022/10/22 07:19:39;;;;;;;56.23;27.40;;;13.10;99.90;;;;;;5031315;28;20194;-48
2022/10/22 07:22:05;;;;;;;47.63;25.80;;;13.10;99.90;;;;;;5027668;28;20197;-48
2022/10/22 07:24:31;;;;;;;57.83;26.27;;;13.10;99.90;;;;;;5025531;28;20223;-49
2022/10/22 07:26:56;;;;;;;46.83;24.80;;;13.20;99.90;;;;;;5011685;28;20176;-48
2022/10/22 07:29:22;;;;;;;38.80;22.70;;;13.20;99.90;;;;;;5011525;28;20172;-48
2022/10/22 07:31:48;;;;;;;41.17;22.60;;;13.30;99.90;;;;;;5011566;28;20274;-49
2022/10/22 07:34:13;;;;;;;36.13;21.57;;;13.30;99.90;;;;;;5017544;28;20197;-49
2022/10/22 07:36:39;;;;;;;46.27;25.60;;;13.40;99.90;;;;;;5030649;28;20601;-48
2022/10/22 07:39:04;;;;;;;44.00;24.63;;;13.40;99.90;;;;;;5030854;28;20531;-49
2022/10/22 07:41:30;;;;;;;43.77;24.47;;;13.50;99.90;;;;;;5031398;28;20643;-48
2022/10/22 07:43:57;;;;;;;35.13;20.47;;;13.60;99.90;;;;;;5031089;28;20241;-48
2022/10/22 07:46:23;;;;;;;41.17;24.60;;;13.70;99.90;;;;;;5031441;28;20876;-48
2022/10/22 07:48:49;;;;;;;48.73;26.03;;;13.70;99.90;;;;;;5029640;28;20527;-47
2022/10/22 07:51:14;;;;;;;44.77;25.07;;;14.00;99.90;;;;;;5030898;28;20449;-48
2022/10/22 07:53:40;;;;;;;44.13;24.47;;;14.60;99.90;;;;;;5030866;28;20167;-48
2022/10/22 07:56:06;;;;;;;35.70;22.90;;;14.70;99.90;;;;;;5030845;28;20183;-48
2022/10/22 07:58:31;;;;;;;36.07;21.27;;;14.80;99.90;;;;;;5030936;28;20659;-48
2022/10/22 08:00:59;;;;;;;31.27;20.53;;;15.00;99.90;;;;;;5031021;28;20261;-47
2022/10/22 08:03:26;;;;;;;28.97;19.67;;;15.30;99.90;;;;;;5029630;28;20210;-47
2022/10/22 08:05:52;;;;;;;28.70;19.00;;;15.70;99.90;;;;;;5025982;28;20430;-47
2022/10/22 08:08:18;;;;;;;26.47;18.20;;;16.10;33.30;;;;;;5011037;28;20528;-47
2022/10/22 08:10:45;;;;;;;23.97;16.03;;;17.10;1.00;;;;;;5010950;28;20526;-46
2022/10/22 08:13:11;;;;;;;20.37;13.20;;;18.30;1.00;;;;;;5010974;28;20507;-46
2022/10/22 08:15:37;;;;;;;21.20;14.57;;;18.70;99.90;;;;;;5010797;28;20414;-46
2022/10/22 08:18:03;;;;;;;19.93;14.30;;;18.50;1.00;;;;;;5010980;28;20222;-46
2022/10/22 08:20:28;;;;;;;22.13;14.00;;;18.00;1.00;;;;;;5010942;28;20841;-46
2022/10/22 08:22:54;;;;;;;21.50;14.70;;;17.60;99.90;;;;;;5010789;28;20497;-46
2022/10/22 08:25:19;;;;;;;21.03;14.43;;;17.20;43.70;;;;;;5010850;28;20211;-46
2022/10/22 08:27:45;;;;;;;19.60;13.57;;;16.90;99.90;;;;;;5023076;28;20188;-45
2022/10/22 08:30:12;;;;;;;25.07;15.00;;;16.70;1.00;;;;;;5029832;28;20587;-46
2022/10/22 08:32:37;;;;;;;22.97;14.03;;;16.40;1.00;;;;;;5028392;28;20244;-46
2022/10/22 08:35:03;;;;;;;22.00;14.00;;;16.20;1.00;;;;;;5033527;28;20453;-46
2022/10/22 08:37:29;;;;;;;25.23;14.90;;;16.00;57.40;;;;;;5030694;28;20190;-46
2022/10/22 08:39:54;;;;;;;21.53;15.20;;;15.80;99.90;;;;;;5028356;28;20649;-46
2022/10/22 08:42:42;;;;;;;22.20;14.93;;;15.80;99.90;;;;;;5030465;28;20510;-46
2022/10/22 08:45:13;;;;;;;23.40;14.00;;;15.80;99.90;;;;;;5027883;28;20247;-46
2022/10/22 08:47:58;;;;;;;25.47;14.70;;;15.80;99.90;;;;;;5033005;28;21273;-45
2022/10/22 08:50:39;;;;;;;24.93;14.17;;;15.90;99.90;;;;;;5033929;28;20891;-46
2022/10/22 08:53:11;;;;;;;19.90;12.90;;;15.90;99.90;;;;;;5033705;28;20441;-46
2022/10/22 08:55:38;;;;;;;20.30;13.40;;;16.00;99.90;;;;;;5033846;28;20421;-46
2022/10/22 08:58:39;;;;;;;19.30;12.87;;;16.10;99.90;;;;;;5033437;28;20792;-45
2022/10/22 09:01:18;;;;;;;20.57;12.10;;;16.20;99.90;;;;;;5029321;28;20434;-50
2022/10/22 09:03:53;;;;;;;18.90;11.57;;;16.30;99.90;;;;;;5026248;28;20476;-50
2022/10/22 09:06:25;;;;;;;19.67;13.13;;;16.20;99.90;;;;;;5019535;28;20444;-50
2022/10/22 09:08:52;;;;;;;18.93;11.90;;;16.30;99.90;;;;;;5033335;28;20511;-50
2022/10/22 09:11:26;;;;;;;23.63;12.50;;;16.20;99.90;;;;;;5034770;28;20520;-50
2022/10/22 09:13:54;;;;;;;19.80;11.07;;;16.20;99.90;;;;;;5033629;28;20511;-50
2022/10/22 09:16:32;;;;;;;21.47;11.43;;;16.30;99.90;;;;;;5033362;28;20417;-50
2022/10/22 09:19:10;;;;;;;19.67;10.93;;;16.40;99.90;;;;;;5033116;28;20952;-50
2022/10/22 09:21:47;;;;;;;21.83;10.70;;;16.50;99.90;;;;;;5031255;28;20453;-50
2022/10/22 09:24:35;;;;;;;19.73;11.03;;;16.50;1.00;;;;;;5033248;28;20465;-49
2022/10/22 09:27:08;;;;;;;18.70;10.60;;;16.60;1.00;;;;;;5033371;28;20410;-49
2022/10/22 09:29:34;;;;;;;13.60;8.47;;;16.60;1.00;;;;;;5032728;28;20516;-49
2022/10/22 09:32:00;;;;;;;14.73;9.20;;;16.60;1.00;;;;;;5031110;28;20528;-49
2022/10/22 09:34:27;;;;;;;17.63;8.80;;;16.70;1.00;;;;;;5034732;28;20191;-49
2022/10/22 09:37:11;;;;;;;14.77;9.60;;;16.70;1.00;;;;;;5038454;28;20188;-49
2022/10/22 09:39:40;;;;;;;16.30;10.07;;;16.80;1.00;;;;;;5035427;28;21198;-49
2022/10/22 09:42:06;;;;;;;11.90;8.50;;;16.90;1.00;;;;;;5032893;28;20425;-49
2022/10/22 09:44:34;;;;;;;15.03;9.17;;;17.00;1.00;;;;;;5032857;28;20492;-49
2022/10/22 09:47:24;;;;;;;14.37;9.40;;;17.10;1.00;;;;;;5033140;28;20920;-49
2022/10/22 09:50:06;;;;;;;15.90;8.80;;;17.30;1.00;;;;;;5032681;28;20495;-48
2022/10/22 09:52:33;;;;;;;16.90;8.23;;;17.30;99.90;;;;;;5034326;28;20444;-48
2022/10/22 09:55:01;;;;;;;16.23;8.47;;;17.50;99.90;;;;;;5032657;28;20417;-49
2022/10/22 09:57:28;;;;;;;16.43;8.13;;;17.60;99.90;;;;;;5032660;28;20525;-49
2022/10/22 09:59:56;;;;;;;16.33;7.70;;;17.70;99.90;;;;;;5032632;28;20919;-49
2022/10/22 10:02:26;;;;;;;13.40;8.23;;;17.90;18.20;;;;;;5032400;28;20529;-49
2022/10/22 10:04:56;;;;;;;10.77;6.87;;;18.00;99.90;;;;;;5031173;28;20485;-48
2022/10/22 10:07:29;;;;;;;21.10;7.93;;;18.20;1.00;;;;;;5027630;28;20836;-48
2022/10/22 10:09:55;;;;;;;12.53;7.80;;;18.40;1.00;;;;;;5032188;28;20444;-49
2022/10/22 10:12:39;;;;;;;12.70;6.70;;;18.60;1.00;;;;;;5031355;28;20426;-48
2022/10/22 10:15:21;;;;;;;9.40;5.80;;;18.90;1.00;;;;;;5033962;28;20448;-48
2022/10/22 10:18:16;;;;;;;9.10;6.17;;;19.00;99.90;;;;;;5030724;28;20426;-48
2022/10/22 10:21:08;;;;;;;16.13;5.60;;;19.30;58.00;;;;;;5032374;28;20452;-48
2022/10/22 10:24:12;;;;;;;8.43;5.10;;;19.90;18.70;;;;;;5027811;28;20457;-48
2022/10/22 10:26:51;;;;;;;8.47;4.20;;;21.60;1.00;;;;;;5030986;28;20488;-48
2022/10/22 10:29:49;;;;;;;7.77;4.47;;;23.40;1.00;;;;;;5029760;28;20437;-48
2022/10/22 10:32:14;;;;;;;11.20;4.07;;;24.90;1.00;;;;;;5028059;28;20460;-47
2022/10/22 10:34:55;;;;;;;11.13;4.20;;;26.10;99.90;;;;;;5033425;28;20915;-47
2022/10/22 10:37:30;;;;;;;9.17;4.40;;;26.80;85.90;;;;;;5033567;28;20187;-48
2022/10/22 10:40:20;;;;;;;9.00;4.13;;;27.50;1.00;;;;;;5031625;28;20441;-47
2022/10/22 10:43:03;;;;;;;9.60;3.70;;;27.90;1.00;;;;;;5030706;28;20433;-47
2022/10/22 10:45:35;;;;;;;7.07;3.43;;;28.50;1.00;;;;;;5025056;28;20486;-48
2022/10/22 10:48:39;;;;;;;7.80;3.10;;;29.00;1.00;;;;;;5031613;28;20493;-48
2022/10/22 10:51:31;;;;;;;5.17;3.00;;;29.50;1.00;;;;;;5031331;28;20516;-47
2022/10/22 10:54:00;;;;;;;7.97;3.23;;;30.00;1.00;;;;;;5027560;28;20525;-47
2022/10/22 10:56:46;;;;;;;6.87;3.50;;;30.10;1.00;;;;;;5022972;28;20810;-47
2022/10/22 10:59:11;;;;;;;7.93;3.17;;;30.00;1.00;;;;;;5024783;28;20441;-45
2022/10/22 11:02:01;;;;;;;9.90;3.77;;;30.20;1.00;;;;;;5011339;28;20572;-46
2022/10/22 11:05:03;;;;;;;4.63;2.70;;;30.60;1.00;;;;;;5026931;28;20203;-48
2022/10/22 11:07:58;;;;;;;8.70;2.93;;;30.80;1.00;;;;;;5020140;28;20479;-45
2022/10/22 11:10:42;;;;;;;6.93;2.10;;;31.10;1.00;;;;;;5024841;28;20429;-45
2022/10/22 11:13:12;;;;;;;4.70;2.70;;;31.50;1.00;;;;;;5028444;28;20468;-43
2022/10/22 11:15:39;;;;;;;5.07;2.80;;;31.80;1.00;;;;;;5028708;28;20453;-42
2022/10/22 11:18:23;;;;;;;7.33;2.60;;;31.40;1.00;;;;;;5030969;28;20414;-43
2022/10/22 11:20:56;;;;;;;10.73;3.33;;;31.10;1.00;;;;;;5010874;28;20426;-43
2022/10/22 11:23:31;;;;;;;9.20;2.53;;;30.70;1.00;;;;;;5016011;28;20445;-43
2022/10/22 11:25:58;;;;;;;8.43;2.83;;;31.30;1.00;;;;;;5030683;28;20503;-43
2022/10/22 11:28:32;;;;;;;9.30;2.90;;;31.20;1.00;;;;;;5029506;28;20506;-43
2022/10/22 11:31:07;;;;;;;14.63;2.80;;;30.50;1.00;;;;;;5028318;28;20884;-43
2022/10/22 11:33:44;;;;;;;9.53;3.10;;;29.50;1.00;;;;;;5029084;28;20480;-45
2022/10/22 11:36:11;;;;;;;6.83;2.97;;;28.70;1.00;;;;;;5011081;28;20494;-45
2022/10/22 11:38:37;;;;;;;6.70;2.87;;;27.70;1.00;;;;;;5028819;28;20770;-44
2022/10/22 11:41:15;;;;;;;5.83;2.90;;;27.30;1.00;;;;;;5030754;28;20501;-45
2022/10/22 11:43:57;;;;;;;7.50;3.57;;;27.30;1.00;;;;;;5030715;28;21191;-45
2022/10/22 11:46:26;;;;;;;13.10;3.00;;;27.30;1.00;;;;;;5028336;28;20424;-45
2022/10/22 11:49:16;;;;;;;9.37;3.20;;;27.50;1.00;;;;;;5028029;28;20560;-45
2022/10/22 11:51:43;;;;;;;7.37;4.23;;;27.40;1.00;;;;;;5026741;28;20444;-44
2022/10/22 11:54:29;;;;;;;10.03;4.23;;;27.30;1.00;;;;;;5034876;28;20445;-44
2022/10/22 11:57:14;;;;;;;6.93;3.67;;;27.10;1.00;;;;;;5018780;28;20448;-45
2022/10/22 11:59:51;;;;;;;7.17;3.60;;;27.60;1.00;;;;;;5030625;28;20806;-44
2022/10/22 12:02:37;;;;;;;9.10;3.80;;;27.90;1.00;;;;;;5029924;28;21115;-44
2022/10/22 12:05:22;;;;;;;6.40;3.00;;;28.50;1.00;;;;;;5011095;28;20462;-45
2022/10/22 12:07:55;;;;;;;9.87;3.00;;;29.00;1.00;;;;;;5011515;28;20440;-44
2022/10/22 12:10:26;;;;;;;12.67;3.40;;;29.10;1.00;;;;;;5029265;28;20500;-45
2022/10/22 12:12:56;;;;;;;9.70;3.80;;;28.90;1.00;;;;;;5030329;28;20498;-44
2022/10/22 12:15:24;;;;;;;5.80;3.93;;;28.60;1.00;;;;;;5032017;28;20846;-43
2022/10/22 12:17:55;;;;;;;8.10;3.70;;;28.60;1.00;;;;;;5030656;28;20544;-45
2022/10/22 12:20:25;;;;;;;7.87;3.90;;;28.30;1.00;;;;;;5021639;28;20487;-45
2022/10/22 12:22:51;;;;;;;5.80;3.77;;;27.70;1.00;;;;;;5033380;28;20796;-43
2022/10/22 12:25:29;;;;;;;10.73;4.20;;;26.60;1.00;;;;;;5035033;28;20552;-45
2022/10/22 12:27:58;;;;;;;8.63;3.47;;;24.60;1.00;;;;;;5031665;28;20456;-43
2022/10/22 12:30:42;;;;;;;11.43;3.90;;;23.00;1.00;;;;;;5034707;28;20455;-43
2022/10/22 12:33:18;;;;;;;7.60;4.10;;;21.90;93.40;;;;;;5034216;28;20504;-43
2022/10/22 12:35:45;;;;;;;9.23;3.77;;;21.20;1.00;;;;;;5034174;28;20490;-43
2022/10/22 12:38:20;;;;;;;11.20;5.13;;;20.90;1.00;;;;;;5033898;28;20441;-43
2022/10/22 12:40:47;;;;;;;8.57;4.73;;;20.60;1.00;;;;;;5034455;28;20440;-43
2022/10/22 12:43:18;;;;;;;14.90;5.70;;;20.20;1.00;;;;;;5034227;28;20440;-43
2022/10/22 12:45:46;;;;;;;8.63;4.70;;;20.10;1.00;;;;;;5029598;28;20492;-43
2022/10/22 12:48:22;;;;;;;8.67;5.10;;;19.90;1.00;;;;;;5033673;28;20746;-43
2022/10/22 12:50:51;;;;;;;10.27;5.60;;;19.70;1.00;;;;;;5033636;28;20891;-43